Time;durP1;ratioP1;P1;durP2;ratioP2;P2;SDS_P1;SDS_P2;PMS_P1;PMS_P2;Temp;Humidity;BMP_temperature;BMP_pressure;BME280_temperature;BME280_humidity;BME280_pressure;Samples;Min_cycle;Max_cycle;Signal;HPM_P1;HPM_P2
2023/04/22 05:04:06;;;;;;;9.70;6.10;;;11.00;99.90;;;;;;4848839;29;20381;-70
2023/04/22 05:06:32;;;;;;;10.65;6.53;;;11.00;99.90;;;;;;4866200;29;20314;-72
2023/04/22 05:09:02;;;;;;;7.75;5.63;;;11.00;99.90;;;;;;4865373;29;20017;-72
2023/04/22 05:11:28;;;;;;;8.80;6.03;;;11.00;99.90;;;;;;4851442;29;20033;-73
2023/04/22 05:13:55;;;;;;;9.45;6.13;;;11.00;99.90;;;;;;4872042;29;20179;-71
2023/04/22 05:16:28;;;;;;;8.07;6.07;;;11.00;99.90;;;;;;4871490;29;20026;-71
2023/04/22 05:18:54;;;;;;;9.13;6.50;;;11.00;99.90;;;;;;4860260;29;20035;-71
2023/04/22 05:21:20;;;;;;;7.35;5.70;;;11.00;99.90;;;;;;4845640;29;20036;-71
2023/04/22 05:23:46;;;;;;;9.55;6.90;;;11.10;99.90;;;;;;4850029;29;20147;-71
2023/04/22 05:26:13;;;;;;;10.25;6.65;;;11.10;99.90;;;;;;4852199;29;20033;-71
2023/04/22 05:28:41;;;;;;;11.15;7.15;;;11.10;99.90;;;;;;4870625;29;20201;-72
2023/04/22 05:31:07;;;;;;;9.43;7.07;;;11.10;99.90;;;;;;4872584;29;20086;-71
2023/04/22 05:33:32;;;;;;;11.05;7.45;;;11.20;99.90;;;;;;4870918;29;20034;-71
2023/04/22 05:35:58;;;;;;;9.13;6.70;;;11.10;99.90;;;;;;4866058;29;20049;-72
2023/04/22 05:38:24;;;;;;;10.50;6.95;;;11.20;99.90;;;;;;4855191;29;20033;-71
2023/04/22 05:40:51;;;;;;;11.23;6.35;;;11.20;99.90;;;;;;4871285;29;20061;-72
2023/04/22 05:43:18;;;;;;;10.20;6.97;;;11.20;99.90;;;;;;4870902;29;20330;-72
2023/04/22 05:45:49;;;;;;;8.38;6.47;;;11.20;99.90;;;;;;4871061;29;20033;-71
2023/04/22 05:48:16;;;;;;;11.32;7.20;;;11.20;99.90;;;;;;4870921;29;20026;-72
2023/04/22 05:50:53;;;;;;;9.48;6.85;;;11.30;99.90;;;;;;4871115;29;20037;-71
2023/04/22 05:53:18;;;;;;;8.90;6.25;;;11.40;99.90;;;;;;4871830;29;20033;-71
2023/04/22 05:55:45;;;;;;;8.75;6.43;;;11.50;99.90;;;;;;4870925;29;20030;-71
2023/04/22 05:58:11;;;;;;;8.73;6.28;;;11.70;99.90;;;;;;4869387;29;20047;-71
2023/04/22 06:00:48;;;;;;;9.70;6.40;;;11.80;99.90;;;;;;4868003;29;20042;-71
2023/04/22 06:03:40;;;;;;;8.80;6.05;;;12.00;99.90;;;;;;4827150;29;20272;-72
2023/04/22 06:06:06;;;;;;;8.30;5.95;;;12.10;99.90;;;;;;4815991;29;20037;-75
2023/04/22 06:08:32;;;;;;;8.52;5.82;;;12.20;99.90;;;;;;4830672;29;20034;-74
2023/04/22 06:10:58;;;;;;;9.10;6.25;;;12.30;99.90;;;;;;4818676;29;20335;-72
2023/04/22 06:13:26;;;;;;;;;;;12.30;99.90;;;;;;4818934;29;20042;-73
2023/04/22 06:15:52;;;;;;;11.82;6.40;;;12.30;99.90;;;;;;4835434;29;19915;-72
2023/04/22 06:18:18;;;;;;;10.85;6.15;;;12.40;99.90;;;;;;4818124;29;20103;-71
2023/04/22 06:20:44;;;;;;;7.72;5.53;;;12.60;99.90;;;;;;4818652;29;20026;-71
2023/04/22 06:23:10;;;;;;;8.90;5.75;;;12.70;99.90;;;;;;4818647;29;20038;-72
2023/04/22 06:25:36;;;;;;;9.15;6.30;;;12.90;99.90;;;;;;4817704;29;20038;-72
2023/04/22 06:28:01;;;;;;;8.25;5.65;;;13.00;99.90;;;;;;4818500;29;20030;-71
2023/04/22 06:30:28;;;;;;;9.40;5.68;;;13.00;99.90;;;;;;4817528;29;20030;-71
2023/04/22 06:32:57;;;;;;;9.43;6.20;;;13.20;99.90;;;;;;4818331;29;20041;-71
2023/04/22 06:35:23;;;;;;;8.38;5.85;;;13.20;99.90;;;;;;4817665;29;20041;-70
2023/04/22 06:37:50;;;;;;;7.32;5.00;;;13.30;99.90;;;;;;4818095;29;20030;-71
2023/04/22 06:40:18;;;;;;;8.43;5.50;;;13.40;99.90;;;;;;4817815;29;20082;-70
2023/04/22 06:42:59;;;;;;;8.38;4.63;;;13.50;99.90;;;;;;4818557;29;20048;-71
2023/04/22 06:46:00;;;;;;;7.85;5.35;;;13.70;99.90;;;;;;4839104;29;20038;-69
2023/04/22 06:48:52;;;;;;;7.78;5.07;;;13.80;99.90;;;;;;4834003;29;20038;-68
2023/04/22 06:51:38;;;;;;;9.20;5.13;;;13.90;99.90;;;;;;4813858;29;20034;-70
2023/04/22 06:54:05;;;;;;;7.05;4.40;;;14.00;99.90;;;;;;4819745;29;20038;-69
2023/04/22 06:56:34;;;;;;;6.72;4.93;;;14.00;99.90;;;;;;4817580;29;20208;-68
2023/04/22 06:59:00;;;;;;;7.72;4.75;;;14.00;99.90;;;;;;4817627;29;20038;-69
2023/04/22 07:01:26;;;;;;;8.68;5.38;;;13.90;99.90;;;;;;4817013;29;20059;-69
2023/04/22 07:03:52;;;;;;;9.15;5.10;;;13.90;99.90;;;;;;4818213;29;20050;-69
2023/04/22 07:06:18;;;;;;;6.90;4.88;;;13.90;99.90;;;;;;4818022;29;20026;-69
2023/04/22 07:08:44;;;;;;;8.60;5.07;;;14.00;99.90;;;;;;4834386;29;20026;-71
2023/04/22 07:11:10;;;;;;;7.40;4.22;;;14.10;99.90;;;;;;4818125;29;20106;-71
2023/04/22 07:13:51;;;;;;;8.48;5.13;;;14.10;99.90;;;;;;4818362;29;20352;-69
2023/04/22 07:16:17;;;;;;;7.43;4.50;;;14.20;99.90;;;;;;4834208;29;20042;-69
2023/04/22 07:18:42;;;;;;;9.18;5.20;;;14.30;99.90;;;;;;4837136;29;20030;-69
2023/04/22 07:21:08;;;;;;;6.82;4.63;;;14.40;99.90;;;;;;4843995;29;20038;-69
2023/04/22 07:23:34;;;;;;;9.05;4.78;;;14.50;99.90;;;;;;4838019;29;20029;-69
2023/04/22 07:26:00;;;;;;;8.80;4.47;;;14.50;99.90;;;;;;4836982;29;20055;-69
2023/04/22 07:28:25;;;;;;;7.60;5.05;;;14.60;99.90;;;;;;4817752;29;20101;-70
2023/04/22 07:30:52;;;;;;;6.10;4.28;;;14.80;99.90;;;;;;4833366;29;20110;-68
2023/04/22 07:33:18;;;;;;;7.95;4.75;;;14.80;99.90;;;;;;4833510;29;20046;-68
2023/04/22 07:35:44;;;;;;;7.70;4.68;;;15.00;99.90;;;;;;4839064;29;20041;-70
2023/04/22 07:38:09;;;;;;;7.28;4.82;;;15.00;99.90;;;;;;4823623;29;20030;-69
2023/04/22 07:40:35;;;;;;;7.78;4.47;;;15.10;99.90;;;;;;4833682;29;20428;-69
2023/04/22 07:43:01;;;;;;;7.00;4.40;;;15.20;99.90;;;;;;4833946;29;20030;-69
2023/04/22 07:45:27;;;;;;;5.88;4.15;;;15.30;99.90;;;;;;4833544;29;20026;-70
2023/04/22 07:47:52;;;;;;;6.20;4.38;;;15.40;99.90;;;;;;4817402;29;20046;-69
2023/04/22 07:50:18;;;;;;;7.70;4.45;;;15.50;99.90;;;;;;4817444;29;20105;-70
2023/04/22 07:52:44;;;;;;;6.78;4.30;;;15.60;99.90;;;;;;4832262;29;20053;-69
2023/04/22 07:55:09;;;;;;;6.57;4.35;;;15.80;99.90;;;;;;4833480;29;20033;-68
2023/04/22 07:57:37;;;;;;;5.38;3.95;;;16.10;99.90;;;;;;4832809;29;20246;-69
2023/04/22 08:00:08;;;;;;;7.80;4.00;;;16.20;99.90;;;;;;4833274;29;20050;-69
2023/04/22 08:02:37;;;;;;;8.90;3.72;;;16.40;99.50;;;;;;4833098;29;20069;-70
2023/04/22 08:05:03;;;;;;;7.00;3.63;;;16.70;99.00;;;;;;4833282;29;20034;-69
2023/04/22 08:07:29;;;;;;;6.75;3.38;;;16.90;98.50;;;;;;4816837;29;20042;-69
2023/04/22 08:09:55;;;;;;;4.75;3.08;;;17.00;98.00;;;;;;4817052;29;20041;-69
2023/04/22 08:12:21;;;;;;;4.63;3.03;;;17.40;97.50;;;;;;4833695;29;20064;-69
2023/04/22 08:14:47;;;;;;;6.60;3.33;;;17.60;96.80;;;;;;4832778;29;20212;-73
2023/04/22 08:17:12;;;;;;;4.43;2.92;;;17.70;96.50;;;;;;4833565;29;20042;-69
2023/04/22 08:19:38;;;;;;;6.72;2.88;;;17.80;96.10;;;;;;4833144;29;20189;-68
2023/04/22 08:22:04;;;;;;;4.50;2.90;;;17.80;96.00;;;;;;4833346;29;20068;-69
2023/04/22 08:24:29;;;;;;;8.70;3.42;;;17.80;95.90;;;;;;4833053;29;20075;-68
2023/04/22 08:26:56;;;;;;;7.95;3.60;;;17.70;96.20;;;;;;4833033;29;20035;-68
2023/04/22 08:29:22;;;;;;;4.82;3.15;;;17.60;96.20;;;;;;4833026;29;20317;-69
2023/04/22 08:31:47;;;;;;;5.93;3.42;;;17.40;96.50;;;;;;4832806;29;20042;-70
2023/04/22 08:34:13;;;;;;;5.80;3.47;;;17.40;96.60;;;;;;4833362;29;20371;-70
2023/04/22 08:36:39;;;;;;;5.13;3.38;;;17.30;96.60;;;;;;4832167;29;20058;-68
2023/04/22 08:39:04;;;;;;;7.75;3.63;;;17.30;96.80;;;;;;4833419;29;20182;-69
2023/04/22 08:41:33;;;;;;;6.93;3.22;;;17.30;96.30;;;;;;4832661;29;20213;-69
2023/04/22 08:44:00;;;;;;;6.38;3.28;;;17.40;96.60;;;;;;4832844;29;20331;-70
2023/04/22 08:46:27;;;;;;;7.68;3.10;;;17.60;96.30;;;;;;4832927;29;20038;-70
2023/04/22 08:48:53;;;;;;;5.13;3.00;;;17.80;96.10;;;;;;4833352;29;20227;-69
2023/04/22 08:51:20;;;;;;;5.75;2.80;;;17.90;95.70;;;;;;4816985;29;20038;-69
2023/04/22 08:53:46;;;;;;;6.00;3.00;;;18.00;95.30;;;;;;4832451;29;20531;-68
2023/04/22 08:56:12;;;;;;;4.50;3.05;;;18.00;94.90;;;;;;4846599;29;20351;-70
2023/04/22 08:58:40;;;;;;;4.78;2.47;;;18.00;94.70;;;;;;4832612;29;20042;-70
2023/04/22 09:01:07;;;;;;;4.30;2.45;;;18.20;94.20;;;;;;4832652;29;20061;-69
2023/04/22 09:03:40;;;;;;;5.20;2.75;;;18.30;93.60;;;;;;4832665;29;20091;-72
2023/04/22 09:06:09;;;;;;;4.80;2.88;;;18.40;93.70;;;;;;4836369;29;20332;-70
2023/04/22 09:08:35;;;;;;;4.38;2.70;;;18.50;93.90;;;;;;4834903;29;20038;-71
2023/04/22 09:11:04;;;;;;;4.90;3.00;;;18.80;93.40;;;;;;4837973;29;20061;-69
2023/04/22 09:13:30;;;;;;;6.20;2.35;;;19.00;92.80;;;;;;4835263;29;20044;-69
2023/04/22 09:15:55;;;;;;;5.28;2.55;;;19.20;92.50;;;;;;4835760;29;20097;-71
2023/04/22 09:18:21;;;;;;;4.13;2.25;;;19.50;91.90;;;;;;4836296;29;20034;-69
2023/04/22 09:20:48;;;;;;;4.82;2.53;;;19.80;91.00;;;;;;4834878;29;20266;-70
2023/04/22 09:23:14;;;;;;;4.05;2.15;;;20.10;90.50;;;;;;4835701;29;20029;-69
2023/04/22 09:25:41;;;;;;;4.75;1.90;;;20.30;90.20;;;;;;4835101;29;20030;-68
2023/04/22 09:28:11;;;;;;;5.15;2.30;;;20.70;89.20;;;;;;4835774;29;20075;-69
2023/04/22 09:30:37;;;;;;;6.78;2.20;;;20.70;87.70;;;;;;4834584;29;20205;-69
2023/04/22 09:33:05;;;;;;;3.05;2.25;;;20.90;88.30;;;;;;4835204;29;20037;-68
2023/04/22 09:35:36;;;;;;;3.85;2.20;;;21.10;87.90;;;;;;4834975;29;20132;-68
2023/04/22 09:38:07;;;;;;;4.90;1.90;;;21.20;86.20;;;;;;4835722;29;20043;-69
2023/04/22 09:40:34;;;;;;;4.07;2.35;;;21.10;86.90;;;;;;4834496;29;20093;-68
2023/04/22 09:43:04;;;;;;;3.72;2.00;;;21.20;86.30;;;;;;4835060;29;20392;-68
2023/04/22 09:45:34;;;;;;;4.53;2.20;;;21.30;85.60;;;;;;4834584;29;20038;-70
2023/04/22 09:48:10;;;;;;;3.83;1.80;;;21.40;84.50;;;;;;4835254;29;20264;-68
2023/04/22 09:50:38;;;;;;;3.42;1.80;;;21.50;84.50;;;;;;4834834;29;20034;-69
2023/04/22 09:53:10;;;;;;;3.15;1.60;;;21.40;83.20;;;;;;4835399;29;20042;-70
2023/04/22 09:55:40;;;;;;;3.20;1.40;;;21.60;83.20;;;;;;4834088;29;20033;-69
2023/04/22 09:58:08;;;;;;;4.72;1.60;;;21.80;82.00;;;;;;4834967;29;20041;-69
2023/04/22 10:00:36;;;;;;;;;;;22.10;81.10;;;;;;4818630;29;20038;-69
2023/04/22 10:03:03;;;;;;;2.20;1.20;;;22.30;80.20;;;;;;4818661;29;19961;-69
2023/04/22 10:05:30;;;;;;;2.47;1.33;;;22.30;78.30;;;;;;4835099;29;20026;-69
2023/04/22 10:07:55;;;;;;;2.22;0.98;;;22.50;77.40;;;;;;4834627;29;20057;-68
2023/04/22 10:10:22;;;;;;;4.25;1.65;;;22.50;75.90;;;;;;4834852;29;20328;-69
2023/04/22 10:12:49;;;;;;;2.40;1.00;;;22.80;76.40;;;;;;4834022;29;20336;-69
2023/04/22 10:15:18;;;;;;;3.28;1.10;;;22.90;75.30;;;;;;4834153;29;20038;-68
2023/04/22 10:17:45;;;;;;;3.53;1.00;;;22.60;74.90;;;;;;4818105;29;20034;-69
2023/04/22 10:20:16;;;;;;;2.30;1.17;;;22.70;76.50;;;;;;4833417;29;20038;-71
2023/04/22 10:22:42;;;;;;;4.07;1.38;;;23.00;75.30;;;;;;4834459;29;20034;-70
2023/04/22 10:25:22;;;;;;;2.38;1.17;;;23.00;74.20;;;;;;4833908;29;20030;-68
2023/04/22 10:28:09;;;;;;;3.45;1.27;;;23.10;74.30;;;;;;4833725;29;20030;-68
2023/04/22 10:30:37;;;;;;;1.95;1.10;;;23.00;73.30;;;;;;4834163;29;20042;-68
2023/04/22 10:33:22;;;;;;;2.50;0.98;;;23.10;72.80;;;;;;4833790;29;20320;-69
2023/04/22 10:36:07;;;;;;;2.10;1.05;;;23.20;73.10;;;;;;4834194;29;20030;-73
2023/04/22 10:38:37;;;;;;;2.85;1.13;;;23.20;72.90;;;;;;4834148;29;20068;-69
2023/04/22 10:41:03;;;;;;;3.60;1.10;;;23.40;72.80;;;;;;4834509;29;20042;-69
2023/04/22 10:43:47;;;;;;;2.65;1.20;;;23.50;71.50;;;;;;4818439;29;20030;-69
2023/04/22 10:46:36;;;;;;;3.15;1.20;;;23.70;71.00;;;;;;4818451;29;20029;-71
2023/04/22 10:49:34;;;;;;;3.03;1.15;;;23.80;70.60;;;;;;4834597;29;20050;-69
2023/04/22 10:52:02;;;;;;;2.78;0.93;;;23.90;69.80;;;;;;4803549;29;20058;-70
2023/04/22 10:54:30;;;;;;;3.53;1.20;;;24.00;70.20;;;;;;4834582;29;20038;-69
2023/04/22 10:57:04;;;;;;;2.08;1.10;;;24.30;69.20;;;;;;4833898;29;20312;-69
2023/04/22 10:59:31;;;;;;;2.60;1.02;;;24.30;68.80;;;;;;4833923;29;20250;-70
2023/04/22 11:02:07;;;;;;;3.40;1.20;;;24.50;68.20;;;;;;4802221;29;20041;-70
2023/04/22 11:04:33;;;;;;;3.25;1.20;;;24.60;66.90;;;;;;4834293;29;20082;-70
2023/04/22 11:07:13;;;;;;;2.42;1.15;;;24.60;67.80;;;;;;4834331;29;20038;-71
2023/04/22 11:09:42;;;;;;;2.30;1.10;;;24.90;66.80;;;;;;4833695;29;20101;-70
2023/04/22 11:12:38;;;;;;;3.92;1.30;;;25.40;65.70;;;;;;4834408;29;20037;-70
2023/04/22 11:15:15;;;;;;;3.38;1.30;;;25.30;64.00;;;;;;4834015;29;20312;-70
2023/04/22 11:17:45;;;;;;;2.03;1.02;;;25.30;64.20;;;;;;4833408;29;20277;-70
2023/04/22 11:20:12;;;;;;;3.28;0.80;;;25.60;63.00;;;;;;4834634;29;20311;-70
2023/04/22 11:22:41;;;;;;;3.22;1.27;;;25.80;61.20;;;;;;4835839;29;20034;-69
2023/04/22 11:25:09;;;;;;;3.50;1.58;;;26.10;59.90;;;;;;4837574;29;20037;-70
2023/04/22 11:27:35;;;;;;;2.80;0.77;;;26.20;59.10;;;;;;4837139;29;20026;-68
2023/04/22 11:30:11;;;;;;;2.22;0.98;;;26.30;58.20;;;;;;4833596;29;20281;-69
2023/04/22 11:32:40;;;;;;;2.83;1.10;;;27.00;58.10;;;;;;4840440;29;20042;-75
2023/04/22 11:35:10;;;;;;;2.70;0.90;;;27.60;58.40;;;;;;4833956;29;20269;-70
2023/04/22 11:37:50;;;;;;;3.13;0.80;;;28.10;55.20;;;;;;4833817;29;20041;-71
2023/04/22 11:40:18;;;;;;;2.30;0.77;;;28.90;54.90;;;;;;4832441;29;20103;-70
2023/04/22 11:42:44;;;;;;;2.10;0.90;;;29.00;52.70;;;;;;4833228;29;20079;-70
2023/04/22 11:45:12;;;;;;;1.98;0.80;;;30.40;51.60;;;;;;4833912;29;20038;-71
2023/04/22 11:47:39;;;;;;;1.70;0.77;;;30.50;51.00;;;;;;4833173;29;20060;-70
2023/04/22 11:50:11;;;;;;;2.13;0.82;;;30.40;51.70;;;;;;4833830;29;20101;-69
2023/04/22 11:52:58;;;;;;;1.98;0.80;;;30.80;51.70;;;;;;4833315;29;20154;-69
2023/04/22 11:55:29;;;;;;;3.30;0.98;;;31.20;50.80;;;;;;4834015;29;20054;-70
2023/04/22 11:57:59;;;;;;;2.75;0.70;;;31.40;48.60;;;;;;4818656;29;20038;-70
2023/04/22 12:00:30;;;;;;;3.17;0.70;;;30.70;48.60;;;;;;4833058;29;20262;-69
2023/04/22 12:03:06;;;;;;;3.65;1.35;;;30.90;48.10;;;;;;4832506;29;20052;-69
2023/04/22 12:05:56;;;;;;;2.90;0.90;;;30.80;49.50;;;;;;4833548;29;20074;-70
2023/04/22 12:08:25;;;;;;;1.70;0.80;;;30.00;48.70;;;;;;4833681;29;20027;-70
2023/04/22 12:11:00;;;;;;;2.88;0.90;;;28.70;50.10;;;;;;4832869;29;20035;-68
2023/04/22 12:13:29;;;;;;;2.75;0.90;;;28.50;50.40;;;;;;4833385;29;20379;-68
2023/04/22 12:16:03;;;;;;;3.63;0.70;;;28.40;51.60;;;;;;4832970;29;20050;-67
2023/04/22 12:18:40;;;;;;;3.13;1.00;;;28.80;49.50;;;;;;4833249;29;20384;-70
2023/04/22 12:21:05;;;;;;;2.97;1.10;;;28.60;50.70;;;;;;4833268;29;20309;-69
2023/04/22 12:23:46;;;;;;;2.38;1.15;;;29.00;50.50;;;;;;4833076;29;20030;-68
2023/04/22 12:26:13;;;;;;;4.93;0.82;;;29.10;49.80;;;;;;4837011;29;20069;-69
2023/04/22 12:28:40;;;;;;;2.05;0.80;;;28.90;51.90;;;;;;4850648;29;20042;-69
2023/04/22 12:31:07;;;;;;;2.55;0.98;;;28.00;51.40;;;;;;4851433;29;20034;-69
2023/04/22 12:33:33;;;;;;;3.40;0.95;;;27.80;52.40;;;;;;4851204;29;20048;-67
2023/04/22 12:35:58;;;;;;;2.45;0.90;;;27.50;53.40;;;;;;4850697;29;20222;-69
2023/04/22 12:38:25;;;;;;;4.43;1.00;;;27.30;52.50;;;;;;4851713;29;20058;-69
2023/04/22 12:40:52;;;;;;;2.42;0.80;;;27.10;52.80;;;;;;4845187;29;20038;-69
2023/04/22 12:43:17;;;;;;;2.45;1.17;;;27.40;52.60;;;;;;4851592;29;20053;-69
2023/04/22 12:45:43;;;;;;;2.17;0.80;;;27.80;53.10;;;;;;4854597;29;20022;-69
2023/04/22 12:48:09;;;;;;;2.10;0.85;;;28.20;53.30;;;;;;4854688;29;20330;-69
2023/04/22 12:50:35;;;;;;;5.85;1.73;;;28.10;51.70;;;;;;4854778;29;20034;-69
2023/04/22 12:53:01;;;;;;;2.30;0.95;;;27.40;53.40;;;;;;4854211;29;20065;-69
2023/04/22 12:55:27;;;;;;;2.78;1.13;;;26.50;52.80;;;;;;4854833;29;20096;-68
2023/04/22 12:57:53;;;;;;;2.65;0.95;;;26.50;53.20;;;;;;4855763;29;20042;-69
2023/04/22 13:00:19;;;;;;;3.50;0.90;;;26.20;54.00;;;;;;4853564;29;20208;-70
2023/04/22 13:02:47;;;;;;;2.97;1.10;;;26.10;54.20;;;;;;4853483;29;20076;-68
2023/04/22 13:05:13;;;;;;;2.80;1.00;;;26.30;53.80;;;;;;4854641;29;20060;-69
2023/04/22 13:07:40;;;;;;;2.92;0.90;;;27.30;53.00;;;;;;4854470;29;20041;-68
2023/04/22 13:10:08;;;;;;;2.67;0.85;;;28.60;52.80;;;;;;4849620;29;20042;-70
2023/04/22 13:12:34;;;;;;;4.25;1.05;;;29.10;51.50;;;;;;4854351;29;20032;-70
2023/04/22 13:15:01;;;;;;;4.82;1.00;;;28.60;50.80;;;;;;4853539;29;20037;-68
2023/04/22 13:17:27;;;;;;;3.58;1.33;;;28.10;50.40;;;;;;4847123;29;20115;-68
2023/04/22 13:19:52;;;;;;;3.75;0.90;;;27.30;51.80;;;;;;4849031;29;20033;-69
2023/04/22 13:22:18;;;;;;;4.15;1.13;;;26.70;51.00;;;;;;4854428;29;20087;-69
2023/04/22 13:24:44;;;;;;;3.55;1.20;;;26.50;51.90;;;;;;4853549;29;20048;-70
2023/04/22 13:27:10;;;;;;;3.75;1.15;;;26.50;52.00;;;;;;4854458;29;20029;-69
2023/04/22 13:29:36;;;;;;;4.13;0.93;;;26.30;52.00;;;;;;4854212;29;20057;-69
2023/04/22 13:32:03;;;;;;;2.90;1.02;;;26.00;52.60;;;;;;4853476;29;20056;-70
2023/04/22 13:34:29;;;;;;;3.75;1.40;;;25.50;53.00;;;;;;4854059;29;20093;-70
2023/04/22 13:36:56;;;;;;;2.28;0.80;;;25.70;53.30;;;;;;4853636;29;20029;-70
2023/04/22 13:39:22;;;;;;;3.33;0.90;;;25.40;53.40;;;;;;4837741;29;20105;-71
2023/04/22 13:41:48;;;;;;;3.00;1.00;;;25.40;53.50;;;;;;4847796;29;20036;-69
2023/04/22 13:44:13;;;;;;;3.30;0.93;;;25.30;54.30;;;;;;4844803;29;20096;-70
2023/04/22 13:46:40;;;;;;;3.33;0.98;;;25.30;53.80;;;;;;4853603;29;20077;-68
2023/04/22 13:49:07;;;;;;;2.30;1.10;;;25.30;54.50;;;;;;4853102;29;20066;-69
2023/04/22 13:51:33;;;;;;;3.25;1.00;;;25.50;54.10;;;;;;4852628;29;20090;-69
2023/04/22 13:54:00;;;;;;;2.90;1.15;;;25.20;54.20;;;;;;4852113;29;20045;-69
2023/04/22 13:56:26;;;;;;;2.22;0.90;;;25.30;55.10;;;;;;4840384;29;20313;-71
2023/04/22 13:58:53;;;;;;;2.22;1.05;;;25.20;55.40;;;;;;4853108;29;20083;-68
2023/04/22 14:01:18;;;;;;;4.82;1.20;;;25.20;58.90;;;;;;4853195;29;20061;-68
2023/04/22 14:03:45;;;;;;;3.17;1.30;;;25.30;60.00;;;;;;4852960;29;20102;-70
2023/04/22 14:06:11;;;;;;;3.30;1.63;;;25.40;60.40;;;;;;4853287;29;20034;-69
2023/04/22 14:08:37;;;;;;;3.53;1.33;;;25.40;59.90;;;;;;4853402;29;20041;-70
2023/04/22 14:11:05;;;;;;;5.50;1.40;;;25.60;60.80;;;;;;4856203;29;20042;-70
2023/04/22 14:13:31;;;;;;;3.60;1.57;;;25.60;60.30;;;;;;4853323;29;20327;-69
2023/04/22 14:15:57;;;;;;;2.50;1.20;;;25.40;58.70;;;;;;4852751;29;20102;-69
2023/04/22 14:18:23;;;;;;;2.50;1.05;;;25.40;58.60;;;;;;4849008;29;20228;-69
2023/04/22 14:20:51;;;;;;;4.03;1.38;;;25.20;56.00;;;;;;4852863;29;20029;-70
2023/04/22 14:23:18;;;;;;;2.63;1.00;;;25.10;56.40;;;;;;4853283;29;20078;-69
2023/04/22 14:25:44;;;;;;;3.13;1.15;;;24.90;56.80;;;;;;4851924;29;20462;-69
2023/04/22 14:28:11;;;;;;;3.72;1.20;;;24.80;56.00;;;;;;4853102;29;20140;-70
2023/04/22 14:30:38;;;;;;;3.28;0.80;;;24.60;56.20;;;;;;4853179;29;20376;-69
2023/04/22 14:33:07;;;;;;;2.67;1.23;;;24.70;55.80;;;;;;4852316;29;20041;-70
2023/04/22 14:35:33;;;;;;;4.00;1.10;;;24.70;56.60;;;;;;4853013;29;20033;-70
2023/04/22 14:38:00;;;;;;;2.47;1.10;;;24.60;55.60;;;;;;4852681;29;20053;-69
2023/04/22 14:40:27;;;;;;;4.75;1.00;;;24.70;55.60;;;;;;4853043;29;20029;-69
2023/04/22 14:42:55;;;;;;;2.42;1.05;;;24.50;56.10;;;;;;4852264;29;20252;-70
2023/04/22 14:45:24;;;;;;;3.70;1.20;;;24.30;56.60;;;;;;4852523;29;20030;-70
2023/04/22 14:47:51;;;;;;;2.50;1.00;;;24.40;56.70;;;;;;4852339;29;20054;-69
2023/04/22 14:50:16;;;;;;;5.07;1.20;;;24.30;56.80;;;;;;4865460;29;20091;-71
2023/04/22 14:52:43;;;;;;;2.70;1.10;;;24.30;56.40;;;;;;4852779;29;20104;-72
2023/04/22 14:55:08;;;;;;;2.03;1.10;;;24.50;56.60;;;;;;4851933;29;20193;-71
2023/04/22 14:57:34;;;;;;;2.72;1.08;;;24.80;55.80;;;;;;4852406;29;20082;-71
2023/04/22 15:00:00;;;;;;;4.15;1.17;;;25.10;55.80;;;;;;4852038;29;20030;-71
2023/04/22 15:02:25;;;;;;;3.90;1.00;;;26.10;55.00;;;;;;4860045;29;20047;-69
2023/04/22 15:04:51;;;;;;;4.03;0.90;;;27.50;52.70;;;;;;4870380;29;20048;-71
2023/04/22 15:07:17;;;;;;;3.03;1.20;;;28.10;52.50;;;;;;4871340;29;20093;-69
2023/04/22 15:09:43;;;;;;;2.97;1.10;;;28.30;51.90;;;;;;4865975;29;20304;-72
2023/04/22 15:12:08;;;;;;;2.80;0.90;;;29.10;52.20;;;;;;4870548;29;20045;-71
2023/04/22 15:14:35;;;;;;;2.67;1.05;;;28.70;51.50;;;;;;4869905;29;20244;-71
2023/04/22 15:17:02;;;;;;;4.20;1.00;;;28.20;52.30;;;;;;4866469;29;20033;-70
2023/04/22 15:19:28;;;;;;;3.25;0.85;;;26.90;53.10;;;;;;4863542;29;20033;-75
2023/04/22 15:21:54;;;;;;;2.08;1.00;;;26.10;54.40;;;;;;4870491;29;20053;-71
2023/04/22 15:24:20;;;;;;;3.03;1.08;;;25.70;55.70;;;;;;4870429;29;20021;-71
2023/04/22 15:26:47;;;;;;;3.15;1.10;;;25.40;55.80;;;;;;4870432;29;20041;-70
2023/04/22 15:29:13;;;;;;;3.33;1.20;;;24.90;56.20;;;;;;4853978;29;20290;-71
2023/04/22 15:31:38;;;;;;;3.22;1.10;;;24.70;57.10;;;;;;4870337;29;20041;-71
2023/04/22 15:34:04;;;;;;;2.85;1.00;;;24.40;58.00;;;;;;4870339;29;20049;-69
2023/04/22 15:36:32;;;;;;;3.08;0.98;;;24.60;57.70;;;;;;4870746;29;20021;-69
2023/04/22 15:38:58;;;;;;;5.70;1.48;;;24.50;57.30;;;;;;4870364;29;20039;-70
2023/04/22 15:41:25;;;;;;;2.30;0.90;;;24.10;57.80;;;;;;4868233;29;20319;-69
2023/04/22 15:43:51;;;;;;;2.20;1.00;;;23.90;57.60;;;;;;4870233;29;20300;-68
2023/04/22 15:46:21;;;;;;;2.38;1.13;;;23.70;58.80;;;;;;4870320;29;20093;-70
2023/04/22 15:48:47;;;;;;;3.05;1.00;;;23.50;59.10;;;;;;4870201;29;20045;-68
2023/04/22 15:51:17;;;;;;;2.15;0.80;;;23.50;59.10;;;;;;4869694;29;20065;-68
2023/04/22 15:53:46;;;;;;;4.13;1.10;;;23.50;59.00;;;;;;4871751;29;20049;-68
2023/04/22 15:56:13;;;;;;;4.25;1.60;;;23.30;59.20;;;;;;4858520;29;20322;-68
2023/04/22 15:58:39;;;;;;;3.00;1.23;;;23.20;59.30;;;;;;4868332;29;20045;-69
2023/04/22 16:01:06;;;;;;;2.10;0.98;;;23.20;59.80;;;;;;4869522;29;20327;-68
2023/04/22 16:03:32;;;;;;;3.13;0.90;;;23.20;59.70;;;;;;4870036;29;20052;-69
2023/04/22 16:05:59;;;;;;;2.85;1.30;;;23.30;59.60;;;;;;4869959;29;20038;-67
2023/04/22 16:08:25;;;;;;;3.20;1.38;;;23.40;60.00;;;;;;4870204;29;20048;-67
2023/04/22 16:10:51;;;;;;;3.97;1.25;;;23.50;59.20;;;;;;4853889;29;20041;-71
2023/04/22 16:13:17;;;;;;;3.10;1.10;;;23.40;59.30;;;;;;4853482;29;20030;-70
2023/04/22 16:15:44;;;;;;;4.28;1.35;;;23.30;59.40;;;;;;4873793;29;20041;-71
2023/04/22 16:18:09;;;;;;;5.53;1.75;;;23.00;59.70;;;;;;4873077;29;20045;-69
2023/04/22 16:20:35;;;;;;;2.75;1.13;;;22.90;60.00;;;;;;4873847;29;20063;-71
2023/04/22 16:23:01;;;;;;;3.42;1.20;;;22.90;60.30;;;;;;4873165;29;20025;-70
2023/04/22 16:25:28;;;;;;;4.70;1.30;;;22.80;61.30;;;;;;4873749;29;20188;-71
2023/04/22 16:27:54;;;;;;;2.67;1.20;;;22.70;60.90;;;;;;4873264;29;20031;-73
2023/04/22 16:30:20;;;;;;;3.88;1.10;;;22.60;61.30;;;;;;4855825;29;20037;-69
2023/04/22 16:32:45;;;;;;;2.78;1.10;;;22.40;61.00;;;;;;4873208;29;20105;-70
2023/04/22 16:35:11;;;;;;;3.67;1.10;;;22.30;61.50;;;;;;4873244;29;20115;-80
2023/04/22 16:37:37;;;;;;;3.88;1.10;;;22.20;62.00;;;;;;4873343;29;20092;-69
2023/04/22 16:40:05;;;;;;;2.75;1.50;;;22.30;61.90;;;;;;4872610;29;20022;-69
2023/04/22 16:42:30;;;;;;;2.93;1.30;;;22.20;63.40;;;;;;4873496;29;20042;-69
2023/04/22 16:44:56;;;;;;;4.10;1.58;;;22.20;63.70;;;;;;4872994;29;20033;-68
2023/04/22 16:47:22;;;;;;;4.28;1.33;;;22.10;62.70;;;;;;4873375;29;20092;-69
2023/04/22 16:49:48;;;;;;;3.22;1.30;;;21.90;62.80;;;;;;4876064;29;20041;-70
2023/04/22 16:52:14;;;;;;;2.80;1.17;;;21.80;63.30;;;;;;4856045;29;20528;-69
2023/04/22 16:54:41;;;;;;;4.63;1.73;;;21.80;62.60;;;;;;4873002;29;20162;-69
2023/04/22 16:57:10;;;;;;;2.72;1.40;;;21.70;62.70;;;;;;4872594;29;20041;-68
2023/04/22 16:59:36;;;;;;;3.80;1.83;;;21.70;63.30;;;;;;4873253;29;20120;-69
2023/04/22 17:02:03;;;;;;;4.07;1.55;;;21.70;63.50;;;;;;4872436;29;20113;-69
2023/04/22 17:04:29;;;;;;;4.43;1.90;;;21.60;64.10;;;;;;4872818;29;20046;-68
2023/04/22 17:06:55;;;;;;;3.42;1.20;;;21.60;63.70;;;;;;4872596;29;20260;-68
2023/04/22 17:09:20;;;;;;;4.45;1.30;;;21.60;63.50;;;;;;4872639;29;20021;-68
2023/04/22 17:11:46;;;;;;;3.40;1.15;;;21.60;63.10;;;;;;4866301;29;20033;-69
2023/04/22 17:14:13;;;;;;;2.90;1.27;;;21.60;63.10;;;;;;4871393;29;20078;-70
2023/04/22 17:16:38;;;;;;;3.20;1.20;;;21.50;63.80;;;;;;4855871;29;20030;-68
2023/04/22 17:19:06;;;;;;;6.63;2.53;;;21.40;63.10;;;;;;4871961;29;20112;-69
2023/04/22 17:21:33;;;;;;;4.80;1.65;;;21.20;63.50;;;;;;4872849;29;20108;-69
2023/04/22 17:24:00;;;;;;;2.83;1.20;;;21.10;63.80;;;;;;4872401;29;20033;-68
2023/04/22 17:26:27;;;;;;;4.40;1.45;;;21.10;63.90;;;;;;4872701;29;20056;-68
2023/04/22 17:28:53;;;;;;;3.33;1.42;;;21.10;64.10;;;;;;4872758;29;20099;-69
2023/04/22 17:31:19;;;;;;;3.38;1.45;;;21.00;64.50;;;;;;4872170;29;20068;-68
2023/04/22 17:33:45;;;;;;;5.68;2.10;;;21.00;64.20;;;;;;4872618;29;20033;-68
2023/04/22 17:36:10;;;;;;;4.78;1.40;;;21.00;64.80;;;;;;4871728;29;20045;-70
2023/04/22 17:38:36;;;;;;;3.45;1.38;;;20.90;65.20;;;;;;4871849;29;20037;-69
2023/04/22 17:41:02;;;;;;;2.42;1.27;;;20.90;65.00;;;;;;4871890;29;20045;-69
2023/04/22 17:43:28;;;;;;;5.30;2.35;;;20.80;65.00;;;;;;4872364;29;20026;-69
2023/04/22 17:45:54;;;;;;;4.97;2.65;;;20.70;66.40;;;;;;4872311;29;20040;-70
2023/04/22 17:48:20;;;;;;;4.85;1.50;;;20.60;65.70;;;;;;4857642;29;20088;-70
2023/04/22 17:50:45;;;;;;;4.28;1.40;;;20.60;65.90;;;;;;4875724;29;20026;-71
2023/04/22 17:53:11;;;;;;;3.13;1.52;;;20.50;65.80;;;;;;4871877;29;20037;-69
2023/04/22 17:55:37;;;;;;;3.38;1.80;;;20.50;66.40;;;;;;4872180;29;20033;-69